Joaquim Tavora, Brazil
Current Conditions -  °F | °C
As of 1:00 PM on Friday 19 Dec 2014 (Local Time) from SBLO Reporting Station
Few Clouds Few Clouds  
Wind Chill: 86°   Ceiling: Unl
Heat Index: 88°   Visibility: 6mi
Dew Point: 66°   Wind: 2mph
Humidity: 51%   Direction: 230°SW
Pressure: 29.85"   Gusts: NA
Location:  23.5°S, 49.9°W
Report Text: SBLO 191500Z 23002KT 9999 FEW030 30/19 Q1011
Loading
Personal Weather Stations






























Interactive Weather Map New forecast layout! Learn more

10-Day Weather Forecast

Advertisements
Track Severe Weather on mobile